createdAt,value
2015-04-07T00:00:04.639Z,14.5
2015-04-07T00:00:23.032Z,14.5
2015-04-07T00:00:41.407Z,14.5
2015-04-07T00:00:59.876Z,14.5
2015-04-07T00:01:18.299Z,14.5
2015-04-07T00:01:36.690Z,14.5
2015-04-07T00:01:54.940Z,14.5
2015-04-07T00:02:12.659Z,14.5
2015-04-07T00:02:31.103Z,14.5
2015-04-07T00:02:49.494Z,14.5
2015-04-07T00:03:07.931Z,14.5
2015-04-07T00:03:26.465Z,14.5
2015-04-07T00:03:44.918Z,14.5
2015-04-07T00:04:03.309Z,14.5
2015-04-07T00:04:21.762Z,14.5
2015-04-07T00:04:40.169Z,14.5
2015-04-07T00:04:58.590Z,14.5
2015-04-07T00:05:17.044Z,14.5
2015-04-07T00:05:35.436Z,14.5
2015-04-07T00:05:53.904Z,14.5
2015-04-07T00:06:12.311Z,14.5
2015-04-07T00:06:30.717Z,14.5
2015-04-07T00:06:49.108Z,14.5
2015-04-07T00:07:07.514Z,14.5
2015-04-07T00:07:25.920Z,14.5
2015-04-07T00:07:43.807Z,14.5
2015-04-07T00:08:02.292Z,14.5
2015-04-07T00:08:20.667Z,14.5
2015-04-07T00:08:39.111Z,14.5
2015-04-07T00:08:57.517Z,14.5
2015-04-07T00:09:15.955Z,14.5
2015-04-07T00:09:34.353Z,14.5
2015-04-07T00:09:52.743Z,14.5
2015-04-07T00:10:11.134Z,14.5
2015-04-07T00:10:29.531Z,14.5
2015-04-07T00:10:47.953Z,14.5
2015-04-07T00:11:06.344Z,14.5
2015-04-07T00:11:24.797Z,14.5
2015-04-07T00:11:43.242Z,14.5
2015-04-07T00:12:01.617Z,14.5
2015-04-07T00:12:20.070Z,14.5
2015-04-07T00:12:38.451Z,14.5
2015-04-07T00:12:56.873Z,14.5
2015-04-07T00:13:15.248Z,14.5
2015-04-07T00:13:33.736Z,14.5
2015-04-07T00:13:52.127Z,14.5
2015-04-07T00:14:10.580Z,14.5
2015-04-07T00:14:28.986Z,14.5
2015-04-07T00:14:47.412Z,14.4
2015-04-07T00:15:05.802Z,14.5
2015-04-07T00:15:24.240Z,14.4
2015-04-07T00:15:42.745Z,14.4
2015-04-07T00:16:01.182Z,14.4
2015-04-07T00:16:19.573Z,14.4
2015-04-07T00:16:38.061Z,14.4
2015-04-07T00:16:56.468Z,14.4
2015-04-07T00:17:14.858Z,14.4
2015-04-07T00:17:33.311Z,14.4
2015-04-07T00:17:51.143Z,14.4
2015-04-07T00:18:09.596Z,14.4
2015-04-07T00:18:28.096Z,14.4
2015-04-07T00:18:46.537Z,14.4
2015-04-07T00:19:04.975Z,14.4
2015-04-07T00:19:23.365Z,14.4
2015-04-07T00:19:41.775Z,14.4
2015-04-07T00:20:00.228Z,14.3
2015-04-07T00:20:18.634Z,14.3
2015-04-07T00:20:37.058Z,14.3
2015-04-07T00:20:55.589Z,14.3
2015-04-07T00:21:14.105Z,14.3
2015-04-07T00:21:32.511Z,14.3
2015-04-07T00:21:50.967Z,14.3
2015-04-07T00:22:09.373Z,14.3
2015-04-07T00:22:27.795Z,14.3
2015-04-07T00:22:46.237Z,14.3
2015-04-07T00:23:04.659Z,14.3
2015-04-07T00:23:23.034Z,14.3
2015-04-07T00:23:41.643Z,14.3
2015-04-07T00:24:00.067Z,14.3
2015-04-07T00:24:18.504Z,14.3
2015-04-07T00:24:36.973Z,14.3
2015-04-07T00:24:55.367Z,14.2
2015-04-07T00:25:13.757Z,14.2
2015-04-07T00:25:32.273Z,14.2
2015-04-07T00:25:50.648Z,14.2
2015-04-07T00:26:09.150Z,14.2
2015-04-07T00:26:27.541Z,14.2
2015-04-07T00:26:46.041Z,14.2
2015-04-07T00:27:04.544Z,14.2
2015-04-07T00:27:22.950Z,14.2
2015-04-07T00:27:41.340Z,14.2
2015-04-07T00:27:59.733Z,14.2
2015-04-07T00:28:18.124Z,14.2
2015-04-07T00:28:36.577Z,14.2
2015-04-07T00:28:54.967Z,14.2
2015-04-07T00:29:13.438Z,14.1
2015-04-07T00:29:31.860Z,14.1
2015-04-07T00:29:50.266Z,14.1
2015-04-07T00:30:08.721Z,14.1
2015-04-07T00:30:27.112Z,14.1
2015-04-07T00:30:45.518Z,14.1
2015-04-07T00:31:03.911Z,14.1
2015-04-07T00:31:22.302Z,14.1
2015-04-07T00:31:40.723Z,14.1
2015-04-07T00:31:59.098Z,14.1
2015-04-07T00:32:17.539Z,14.1
2015-04-07T00:32:35.945Z,14.1
2015-04-07T00:32:54.367Z,14.1
2015-04-07T00:33:12.776Z,14.1
2015-04-07T00:33:31.183Z,14.1
2015-04-07T00:33:49.636Z,14.1
2015-04-07T00:34:08.044Z,14.1
2015-04-07T00:34:26.528Z,14.1
2015-04-07T00:34:44.950Z,14.1
2015-04-07T00:35:03.546Z,14
2015-04-07T00:35:22.093Z,14.1
2015-04-07T00:35:40.483Z,14
2015-04-07T00:35:58.905Z,14
2015-04-07T00:36:17.377Z,14
2015-04-07T00:36:35.799Z,14
2015-04-07T00:36:54.174Z,14
2015-04-07T00:37:12.629Z,14
2015-04-07T00:37:31.020Z,14
2015-04-07T00:37:49.410Z,14
2015-04-07T00:38:07.834Z,14
2015-04-07T00:38:26.209Z,14
2015-04-07T00:38:44.662Z,14
2015-04-07T00:39:03.053Z,14
2015-04-07T00:39:21.572Z,14
2015-04-07T00:39:40.072Z,14
2015-04-07T00:39:58.462Z,14
2015-04-07T00:40:16.245Z,14
2015-04-07T00:40:34.636Z,14
2015-04-07T00:40:53.105Z,13.9
2015-04-07T00:41:10.872Z,13.9
2015-04-07T00:41:29.341Z,13.9
2015-04-07T00:41:47.857Z,13.9
2015-04-07T00:42:06.263Z,13.9
2015-04-07T00:42:24.671Z,13.9
2015-04-07T00:42:43.109Z,13.9
2015-04-07T00:43:01.499Z,13.9
2015-04-07T00:43:19.987Z,13.9
2015-04-07T00:43:38.409Z,13.9
2015-04-07T00:43:56.846Z,13.9
2015-04-07T00:44:15.268Z,13.9
2015-04-07T00:44:33.739Z,13.9
2015-04-07T00:44:52.208Z,13.9
2015-04-07T00:45:10.676Z,13.9
2015-04-07T00:45:29.132Z,13.9
2015-04-07T00:45:47.664Z,13.9
2015-04-07T00:46:06.148Z,13.9
2015-04-07T00:46:24.664Z,13.9
2015-04-07T00:46:43.072Z,13.9
2015-04-07T00:47:01.603Z,13.8
2015-04-07T00:47:20.041Z,13.8
2015-04-07T00:47:38.497Z,13.8
2015-04-07T00:47:56.981Z,13.8
2015-04-07T00:48:15.528Z,13.8
2015-04-07T00:48:33.968Z,13.8
2015-04-07T00:48:52.374Z,13.8
2015-04-07T00:49:10.764Z,13.8
2015-04-07T00:49:29.218Z,13.8
2015-04-07T00:49:47.611Z,13.8
2015-04-07T00:50:06.064Z,13.8
2015-04-07T00:50:24.471Z,13.8
2015-04-07T00:50:42.926Z,13.8
2015-04-07T00:51:01.379Z,13.8
2015-04-07T00:51:19.769Z,13.8
2015-04-07T00:51:38.210Z,13.8
2015-04-07T00:51:56.710Z,13.8
2015-04-07T00:52:18.147Z,13.8
2015-04-07T00:52:36.555Z,13.8
2015-04-07T00:52:54.992Z,13.8
2015-04-07T00:53:13.445Z,13.8
2015-04-07T00:53:31.883Z,13.8
2015-04-07T00:53:50.354Z,13.7
2015-04-07T00:54:08.807Z,13.7
2015-04-07T00:54:27.244Z,13.7
2015-04-07T00:54:45.778Z,13.7
2015-04-07T00:55:04.278Z,13.7
2015-04-07T00:55:22.778Z,13.7
2015-04-07T00:55:41.171Z,13.7
2015-04-07T00:55:59.562Z,13.7
2015-04-07T00:56:17.999Z,13.7
2015-04-07T00:56:36.437Z,13.7
2015-04-07T00:56:54.893Z,13.7
2015-04-07T00:57:13.377Z,13.7
2015-04-07T00:57:31.815Z,13.7
2015-04-07T00:57:50.239Z,13.7
2015-04-07T00:58:08.645Z,13.7
2015-04-07T00:58:27.051Z,13.6
2015-04-07T00:58:45.476Z,13.7
2015-04-07T00:59:03.929Z,13.6
2015-04-07T00:59:22.429Z,13.6
2015-04-07T00:59:40.867Z,13.6
2015-04-07T00:59:59.275Z,13.6
2015-04-07T01:00:17.665Z,13.6
2015-04-07T01:00:36.103Z,13.6
2015-04-07T01:00:54.558Z,13.6
2015-04-07T01:01:13.011Z,13.6
2015-04-07T01:01:31.449Z,13.6
2015-04-07T01:01:49.874Z,13.6
2015-04-07T01:02:08.374Z,13.6
2015-04-07T01:02:26.811Z,13.6
2015-04-07T01:02:45.202Z,13.6
2015-04-07T01:03:03.641Z,13.5
2015-04-07T01:03:22.094Z,13.6
2015-04-07T01:03:40.563Z,13.6
2015-04-07T01:03:59.018Z,13.5
2015-04-07T01:04:17.503Z,13.5
2015-04-07T01:04:36.065Z,13.5
2015-04-07T01:04:54.552Z,13.5
2015-04-07T01:05:12.943Z,13.5
2015-04-07T01:05:31.396Z,13.5
2015-04-07T01:05:49.865Z,13.5
2015-04-07T01:06:08.290Z,13.5
2015-04-07T01:06:26.743Z,13.5
2015-04-07T01:06:45.180Z,13.5
2015-04-07T01:07:03.636Z,13.5
2015-04-07T01:07:22.057Z,13.5
2015-04-07T01:07:40.479Z,13.6
2015-04-07T01:07:58.917Z,13.5
2015-04-07T01:08:17.372Z,13.5
2015-04-07T01:08:35.763Z,13.5
2015-04-07T01:08:54.169Z,13.5
2015-04-07T01:09:12.594Z,13.5
2015-04-07T01:09:31.016Z,13.6
2015-04-07T01:09:49.484Z,13.6
2015-04-07T01:10:07.891Z,13.6
2015-04-07T01:10:26.361Z,13.6
2015-04-07T01:10:44.768Z,13.6
2015-04-07T01:11:03.221Z,13.6
2015-04-07T01:11:21.660Z,13.6
2015-04-07T01:11:40.270Z,13.6
2015-04-07T01:11:58.691Z,13.6
2015-04-07T01:12:17.098Z,13.6
2015-04-07T01:12:35.570Z,13.6
2015-04-07T01:12:54.008Z,13.6
2015-04-07T01:13:12.399Z,13.6
2015-04-07T01:13:30.931Z,13.6
2015-04-07T01:13:49.368Z,13.6
2015-04-07T01:14:07.118Z,13.6
2015-04-07T01:14:25.571Z,13.6
2015-04-07T01:14:44.012Z,13.6
2015-04-07T01:15:02.465Z,13.6
2015-04-07T01:15:20.903Z,13.6
2015-04-07T01:15:39.359Z,13.6
2015-04-07T01:15:57.827Z,13.6
2015-04-07T01:16:16.249Z,13.5
2015-04-07T01:16:34.658Z,13.6
2015-04-07T01:16:53.095Z,13.5
2015-04-07T01:17:11.564Z,13.5
2015-04-07T01:17:29.986Z,13.5
2015-04-07T01:17:48.472Z,13.5
2015-04-07T01:18:06.894Z,13.5
2015-04-07T01:18:25.425Z,13.5
2015-04-07T01:18:43.927Z,13.5
2015-04-07T01:19:02.365Z,13.5
2015-04-07T01:19:20.755Z,13.5
2015-04-07T01:19:39.227Z,13.5
2015-04-07T01:19:57.633Z,13.5
2015-04-07T01:20:16.102Z,13.5
2015-04-07T01:20:34.540Z,13.5
2015-04-07T01:20:52.963Z,13.5
2015-04-07T01:21:11.463Z,13.5
2015-04-07T01:21:29.901Z,13.5
2015-04-07T01:21:48.357Z,13.5
2015-04-07T01:22:06.763Z,13.5
2015-04-07T01:22:25.201Z,13.5
2015-04-07T01:22:43.625Z,13.5
2015-04-07T01:23:02.015Z,13.5
2015-04-07T01:23:19.797Z,13.5
2015-04-07T01:23:38.203Z,13.5
2015-04-07T01:23:56.721Z,13.5
2015-04-07T01:24:15.268Z,13.5
2015-04-07T01:24:33.690Z,13.5
2015-04-07T01:24:52.130Z,13.5
2015-04-07T01:25:10.567Z,13.5
2015-04-07T01:25:28.989Z,13.5
2015-04-07T01:25:47.475Z,13.4
2015-04-07T01:26:05.897Z,13.5
2015-04-07T01:26:24.304Z,13.4
2015-04-07T01:26:42.772Z,13.4
2015-04-07T01:27:01.181Z,13.4
2015-04-07T01:27:19.665Z,13.4
2015-04-07T01:27:38.102Z,13.4
2015-04-07T01:27:56.621Z,13.4
2015-04-07T01:28:15.043Z,13.4
2015-04-07T01:28:33.512Z,13.4
2015-04-07T01:28:52.043Z,13.4
2015-04-07T01:29:10.514Z,13.4
2015-04-07T01:29:28.967Z,13.4
2015-04-07T01:29:47.404Z,13.4
2015-04-07T01:30:05.907Z,13.4
2015-04-07T01:30:24.407Z,13.4
2015-04-07T01:30:42.892Z,13.4
2015-04-07T01:31:01.407Z,13.4
2015-04-07T01:31:19.816Z,13.3
2015-04-07T01:31:38.206Z,13.3
2015-04-07T01:31:56.644Z,13.3
2015-04-07T01:32:15.100Z,13.3
2015-04-07T01:32:33.506Z,13.3
2015-04-07T01:32:51.944Z,13.3
2015-04-07T01:33:10.399Z,13.3
2015-04-07T01:33:28.805Z,13.3
2015-04-07T01:33:47.258Z,13.3
2015-04-07T01:34:05.664Z,13.3
2015-04-07T01:34:24.152Z,13.3
2015-04-07T01:34:42.589Z,13.3
2015-04-07T01:35:01.011Z,13.2
2015-04-07T01:35:19.466Z,13.2
2015-04-07T01:35:37.857Z,13.2
2015-04-07T01:35:56.279Z,13.2
2015-04-07T01:36:14.703Z,13.2
2015-04-07T01:36:33.124Z,13.2
2015-04-07T01:36:51.546Z,13.2
2015-04-07T01:37:09.953Z,13.2
2015-04-07T01:37:28.330Z,13.2
2015-04-07T01:37:46.767Z,13.2
2015-04-07T01:38:05.220Z,13.2
2015-04-07T01:38:23.613Z,13.2
2015-04-07T01:38:42.066Z,13.2
2015-04-07T01:39:00.488Z,13.2
2015-04-07T01:39:18.866Z,13.2
2015-04-07T01:39:37.288Z,13.2
2015-04-07T01:39:55.710Z,13.2
2015-04-07T01:40:14.116Z,13.2
2015-04-07T01:40:32.509Z,13.1
2015-04-07T01:40:50.884Z,13.1
2015-04-07T01:41:09.338Z,13.1
2015-04-07T01:41:27.760Z,13.1
2015-04-07T01:41:46.182Z,13.1
2015-04-07T01:42:04.573Z,13.1
2015-04-07T01:42:22.967Z,13.1
2015-04-07T01:42:41.404Z,13.1
2015-04-07T01:42:59.842Z,13.1
2015-04-07T01:43:18.263Z,13.1
2015-04-07T01:43:36.687Z,13.1
2015-04-07T01:43:55.094Z,13.1
2015-04-07T01:44:13.531Z,13.1
2015-04-07T01:44:31.955Z,13.1
2015-04-07T01:44:50.439Z,13.1
2015-04-07T01:45:08.846Z,13.1
2015-04-07T01:45:27.256Z,13.1
2015-04-07T01:45:45.693Z,13.1
2015-04-07T01:46:04.162Z,13.1
2015-04-07T01:46:22.539Z,13.1
2015-04-07T01:46:40.961Z,13.1
2015-04-07T01:46:59.367Z,13.1
2015-04-07T01:47:17.805Z,13.1
2015-04-07T01:47:36.260Z,13
2015-04-07T01:47:54.666Z,13
2015-04-07T01:48:13.088Z,13
2015-04-07T01:48:31.512Z,13
2015-04-07T01:48:49.887Z,13
2015-04-07T01:49:08.387Z,13
2015-04-07T01:49:26.859Z,13
2015-04-07T01:49:45.265Z,13
2015-04-07T01:50:03.671Z,13
2015-04-07T01:50:22.109Z,13
2015-04-07T01:50:40.486Z,13
2015-04-07T01:50:58.907Z,13
2015-04-07T01:51:17.282Z,13
2015-04-07T01:51:35.800Z,13
2015-04-07T01:51:54.253Z,13
2015-04-07T01:52:12.753Z,13
2015-04-07T01:52:31.144Z,13
2015-04-07T01:52:49.522Z,13
2015-04-07T01:53:07.944Z,13
2015-04-07T01:53:26.350Z,13
2015-04-07T01:53:44.775Z,13
2015-04-07T01:54:03.228Z,13
2015-04-07T01:54:21.681Z,13
2015-04-07T01:54:40.119Z,13
2015-04-07T01:54:58.527Z,13
2015-04-07T01:55:16.917Z,12.9
2015-04-07T01:55:35.324Z,12.9
2015-04-07T01:55:53.764Z,13
2015-04-07T01:56:12.155Z,12.9
2015-04-07T01:56:30.545Z,12.9
2015-04-07T01:56:48.936Z,12.9
2015-04-07T01:57:07.391Z,12.9
2015-04-07T01:57:25.766Z,12.9
2015-04-07T01:57:44.251Z,12.9
2015-04-07T01:58:02.706Z,12.9
2015-04-07T01:58:21.174Z,12.9
2015-04-07T01:58:39.628Z,12.9
2015-04-07T01:58:58.036Z,12.9
2015-04-07T01:59:16.442Z,12.9
2015-04-07T01:59:34.864Z,12.9
2015-04-07T01:59:53.364Z,12.9
2015-04-07T02:00:11.867Z,12.9
2015-04-07T02:00:30.258Z,12.9
2015-04-07T02:00:48.695Z,12.9
2015-04-07T02:01:07.166Z,12.9
2015-04-07T02:01:25.650Z,12.9
2015-04-07T02:01:44.041Z,13
2015-04-07T02:02:02.558Z,12.9
2015-04-07T02:02:20.980Z,12.9
2015-04-07T02:02:39.402Z,12.9
2015-04-07T02:02:57.905Z,13
2015-04-07T02:03:16.343Z,12.9
2015-04-07T02:03:34.718Z,13
2015-04-07T02:03:53.452Z,13
2015-04-07T02:04:11.954Z,12.9
2015-04-07T02:04:30.454Z,13
2015-04-07T02:04:48.938Z,13
2015-04-07T02:05:07.534Z,12.9
2015-04-07T02:05:25.940Z,12.9
2015-04-07T02:05:44.612Z,12.9
2015-04-07T02:06:03.036Z,12.9
2015-04-07T02:06:21.458Z,12.9
2015-04-07T02:06:39.896Z,12.9
2015-04-07T02:06:58.536Z,12.9
2015-04-07T02:07:16.961Z,12.9
2015-04-07T02:07:35.539Z,12.9
2015-04-07T02:07:53.914Z,12.9
2015-04-07T02:08:12.385Z,12.9
2015-04-07T02:08:30.791Z,12.9
2015-04-07T02:08:49.354Z,12.9
2015-04-07T02:09:07.747Z,12.9
2015-04-07T02:09:26.263Z,12.9
2015-04-07T02:09:44.716Z,12.9
2015-04-07T02:10:03.234Z,12.9
2015-04-07T02:10:21.640Z,12.9
2015-04-07T02:10:40.077Z,12.9
2015-04-07T02:10:58.531Z,12.9
2015-04-07T02:11:16.954Z,12.9
2015-04-07T02:11:35.329Z,12.9
2015-04-07T02:11:53.798Z,12.9
2015-04-07T02:12:12.331Z,12.8
2015-04-07T02:12:30.738Z,12.8
2015-04-07T02:12:49.175Z,12.8
2015-04-07T02:13:07.788Z,12.8
2015-04-07T02:13:26.428Z,12.8
2015-04-07T02:13:45.022Z,12.8
2015-04-07T02:14:03.428Z,12.8
2015-04-07T02:14:21.884Z,12.8
2015-04-07T02:14:40.666Z,12.8
2015-04-07T02:14:59.119Z,12.8
2015-04-07T02:15:17.511Z,12.8
2015-04-07T02:15:35.980Z,12.8
2015-04-07T02:15:54.402Z,12.8
2015-04-07T02:16:12.933Z,12.8
2015-04-07T02:16:31.358Z,12.8
2015-04-07T02:16:49.811Z,12.8
2015-04-07T02:17:08.186Z,12.7
2015-04-07T02:17:26.938Z,12.7
2015-04-07T02:17:45.329Z,12.7
2015-04-07T02:18:04.173Z,12.7
2015-04-07T02:18:22.751Z,12.7
2015-04-07T02:18:41.426Z,12.7
2015-04-07T02:18:59.879Z,12.7
2015-04-07T02:19:18.394Z,12.7
2015-04-07T02:19:36.818Z,12.7
2015-04-07T02:19:55.396Z,12.7
2015-04-07T02:20:13.849Z,12.7
2015-04-07T02:20:32.258Z,12.7
2015-04-07T02:20:50.992Z,12.7
2015-04-07T02:21:09.430Z,12.7
2015-04-07T02:21:27.807Z,12.7
2015-04-07T02:21:46.275Z,12.7
2015-04-07T02:22:05.463Z,12.7
2015-04-07T02:22:23.947Z,12.7
2015-04-07T02:22:42.418Z,12.7
2015-04-07T02:23:00.918Z,12.7
2015-04-07T02:23:19.387Z,12.7
2015-04-07T02:23:37.874Z,12.8
2015-04-07T02:23:56.358Z,12.8
2015-04-07T02:24:14.812Z,12.8
2015-04-07T02:24:33.298Z,12.8
2015-04-07T02:24:51.829Z,12.8
2015-04-07T02:25:10.204Z,12.8
2015-04-07T02:25:28.597Z,12.8
2015-04-07T02:25:47.222Z,12.8
2015-04-07T02:26:05.784Z,12.8
2015-04-07T02:26:24.206Z,12.8
2015-04-07T02:26:42.803Z,12.8
2015-04-07T02:27:01.272Z,12.8
2015-04-07T02:27:19.803Z,12.8
2015-04-07T02:27:38.242Z,12.8
2015-04-07T02:27:56.821Z,12.8
2015-04-07T02:28:15.258Z,12.8
2015-04-07T02:28:33.885Z,12.8
2015-04-07T02:28:52.401Z,12.8
2015-04-07T02:29:11.198Z,12.8
2015-04-07T02:29:29.729Z,12.8
2015-04-07T02:29:48.294Z,12.8
2015-04-07T02:30:06.826Z,12.8
2015-04-07T02:30:25.419Z,12.8
2015-04-07T02:30:43.829Z,12.8
2015-04-07T02:31:02.329Z,12.8
2015-04-07T02:31:20.750Z,12.8
2015-04-07T02:31:39.532Z,12.8
2015-04-07T02:31:58.018Z,12.8
2015-04-07T02:32:16.737Z,12.8
2015-04-07T02:32:34.471Z,12.8
2015-04-07T02:32:52.895Z,12.8
2015-04-07T02:33:11.286Z,12.8
2015-04-07T02:33:29.708Z,12.8
2015-04-07T02:33:48.083Z,12.8
2015-04-07T02:34:06.647Z,12.8
2015-04-07T02:34:25.038Z,12.8
2015-04-07T02:34:43.428Z,12.8
2015-04-07T02:35:01.822Z,12.8
2015-04-07T02:35:20.353Z,12.8
2015-04-07T02:35:38.900Z,12.8
2015-04-07T02:35:57.293Z,12.8
2015-04-07T02:36:15.668Z,12.7
2015-04-07T02:36:34.058Z,12.8
2015-04-07T02:36:52.593Z,12.7
2015-04-07T02:37:11.077Z,12.7
2015-04-07T02:37:29.671Z,12.7
2015-04-07T02:37:48.061Z,12.7
2015-04-07T02:38:06.564Z,12.7
2015-04-07T02:38:25.236Z,12.7
2015-04-07T02:38:43.611Z,12.7
2015-04-07T02:39:02.129Z,12.7
2015-04-07T02:39:20.598Z,12.7
2015-04-07T02:39:38.973Z,12.7
2015-04-07T02:39:57.787Z,12.7
2015-04-07T02:40:16.162Z,12.7
2015-04-07T02:40:34.740Z,12.7
2015-04-07T02:40:53.162Z,12.7
2015-04-07T02:41:10.977Z,12.7
2015-04-07T02:41:29.367Z,12.7
2015-04-07T02:41:47.867Z,12.7
2015-04-07T02:42:06.495Z,12.7
2015-04-07T02:42:24.886Z,12.7
2015-04-07T02:42:43.589Z,12.7
2015-04-07T02:43:02.059Z,12.7
2015-04-07T02:43:20.574Z,12.7
2015-04-07T02:43:39.059Z,12.7
2015-04-07T02:43:57.702Z,12.7
2015-04-07T02:44:16.077Z,12.7
2015-04-07T02:44:34.765Z,12.7
2015-04-07T02:44:53.484Z,12.7
2015-04-07T02:45:12.032Z,12.7
2015-04-07T02:45:30.532Z,12.7
2015-04-07T02:45:48.939Z,12.7
2015-04-07T02:46:07.535Z,12.7
2015-04-07T02:46:26.082Z,12.8
2015-04-07T02:46:44.473Z,12.8
2015-04-07T02:47:03.022Z,12.8
2015-04-07T02:47:21.506Z,12.8
2015-04-07T02:47:39.897Z,12.7
2015-04-07T02:47:58.459Z,12.8
2015-04-07T02:48:17.119Z,12.7
2015-04-07T02:48:35.494Z,12.8
2015-04-07T02:48:53.947Z,12.8
2015-04-07T02:49:12.480Z,12.8
2015-04-07T02:49:30.855Z,12.8
2015-04-07T02:49:49.542Z,12.8
2015-04-07T02:50:08.091Z,12.8
2015-04-07T02:50:26.669Z,12.7
2015-04-07T02:50:45.201Z,12.8
2015-04-07T02:51:03.607Z,12.7
2015-04-07T02:51:22.047Z,12.8
2015-04-07T02:51:40.672Z,12.8
2015-04-07T02:51:59.094Z,12.8
2015-04-07T02:52:17.503Z,12.8
2015-04-07T02:52:36.034Z,12.8
2015-04-07T02:52:54.581Z,12.8
2015-04-07T02:53:12.971Z,12.8
2015-04-07T02:53:31.365Z,12.7
2015-04-07T02:53:49.818Z,12.8
2015-04-07T02:54:08.412Z,12.7
2015-04-07T02:54:26.914Z,12.7
2015-04-07T02:54:45.539Z,12.8
2015-04-07T02:55:04.039Z,12.7
2015-04-07T02:55:22.648Z,12.7
2015-04-07T02:55:41.261Z,12.7
2015-04-07T02:55:59.870Z,12.7
2015-04-07T02:56:18.292Z,12.7
2015-04-07T02:56:36.856Z,12.7
2015-04-07T02:56:55.450Z,12.7
2015-04-07T02:57:13.841Z,12.7
2015-04-07T02:57:32.593Z,12.7
2015-04-07T02:57:51.015Z,12.7
2015-04-07T02:58:09.405Z,12.7
2015-04-07T02:58:27.890Z,12.7
2015-04-07T02:58:46.518Z,12.6
2015-04-07T02:59:04.893Z,12.7
2015-04-07T02:59:23.314Z,12.7
2015-04-07T02:59:41.832Z,12.6
2015-04-07T03:00:00.223Z,12.6
2015-04-07T03:00:18.957Z,12.6
2015-04-07T03:00:37.351Z,12.6
2015-04-07T03:00:55.773Z,12.6
2015-04-07T03:01:14.163Z,12.6
2015-04-07T03:01:32.586Z,12.6
2015-04-07T03:01:50.977Z,12.6
2015-04-07T03:02:09.367Z,12.6
2015-04-07T03:02:27.742Z,12.6
2015-04-07T03:02:46.167Z,12.6
2015-04-07T03:03:04.683Z,12.6
2015-04-07T03:03:23.073Z,12.6
2015-04-07T03:03:41.466Z,12.6
2015-04-07T03:04:00.044Z,12.6
2015-04-07T03:04:18.419Z,12.6
2015-04-07T03:04:37.016Z,12.6
2015-04-07T03:04:55.547Z,12.6
2015-04-07T03:05:14.141Z,12.6
2015-04-07T03:05:31.875Z,12.6
2015-04-07T03:05:50.346Z,12.6
2015-04-07T03:06:08.768Z,12.6
2015-04-07T03:06:27.330Z,12.6
2015-04-07T03:06:45.754Z,12.6
2015-04-07T03:07:04.973Z,12.6
2015-04-07T03:07:23.442Z,12.6
2015-04-07T03:07:41.867Z,12.6
2015-04-07T03:08:00.414Z,12.5
2015-04-07T03:08:18.929Z,12.6
2015-04-07T03:08:37.320Z,12.5
2015-04-07T03:08:55.806Z,12.5
2015-04-07T03:09:14.212Z,12.5
2015-04-07T03:09:32.681Z,12.5
2015-04-07T03:09:51.169Z,12.5
2015-04-07T03:10:09.715Z,12.5
2015-04-07T03:10:28.169Z,12.5
2015-04-07T03:10:46.606Z,12.5
2015-04-07T03:11:04.983Z,12.5
2015-04-07T03:11:23.374Z,12.5
2015-04-07T03:11:41.749Z,12.5
2015-04-07T03:12:00.173Z,12.5
2015-04-07T03:12:17.954Z,12.5
2015-04-07T03:12:36.485Z,12.5
2015-04-07T03:12:55.204Z,12.5
2015-04-07T03:13:13.660Z,12.5
2015-04-07T03:13:32.191Z,12.5
2015-04-07T03:13:50.754Z,12.5
2015-04-07T03:14:09.538Z,12.5
2015-04-07T03:14:28.179Z,12.5
2015-04-07T03:14:46.725Z,12.5
2015-04-07T03:15:05.366Z,12.5
2015-04-07T03:15:23.774Z,12.5
2015-04-07T03:15:42.352Z,12.4
2015-04-07T03:16:01.149Z,12.5
2015-04-07T03:16:19.559Z,12.4
2015-04-07T03:16:38.012Z,12.4
2015-04-07T03:16:56.465Z,12.4
2015-04-07T03:17:14.857Z,12.4
2015-04-07T03:17:33.467Z,12.4
2015-04-07T03:17:51.951Z,12.4
2015-04-07T03:18:10.719Z,12.4
2015-04-07T03:18:29.188Z,12.4
2015-04-07T03:18:46.938Z,12.4
2015-04-07T03:19:05.313Z,12.3
2015-04-07T03:19:23.706Z,12.3
2015-04-07T03:19:42.472Z,12.3
2015-04-07T03:20:00.862Z,12.3
2015-04-07T03:20:19.254Z,12.3
2015-04-07T03:20:37.660Z,12.3
2015-04-07T03:20:56.192Z,12.3
2015-04-07T03:21:14.585Z,12.3
2015-04-07T03:21:32.976Z,12.3
2015-04-07T03:21:51.351Z,12.3
2015-04-07T03:22:09.757Z,12.3
2015-04-07T03:22:28.165Z,12.3
2015-04-07T03:22:46.603Z,12.3
2015-04-07T03:23:05.040Z,12.2
2015-04-07T03:23:23.434Z,12.2
2015-04-07T03:23:42.106Z,12.2
2015-04-07T03:24:00.496Z,12.2
2015-04-07T03:24:19.186Z,12.2
2015-04-07T03:24:37.780Z,12.2
2015-04-07T03:24:56.530Z,12.2
2015-04-07T03:25:14.905Z,12.2
2015-04-07T03:25:33.469Z,12.2
2015-04-07T03:25:51.875Z,12.2
2015-04-07T03:26:10.547Z,12.2
2015-04-07T03:26:28.940Z,12.2
2015-04-07T03:26:47.424Z,12.2
2015-04-07T03:27:06.065Z,12.2
2015-04-07T03:27:24.647Z,12.2
2015-04-07T03:27:43.100Z,12.2
2015-04-07T03:28:01.553Z,12.2
2015-04-07T03:28:20.116Z,12.2
2015-04-07T03:28:38.602Z,12.2
2015-04-07T03:28:56.977Z,12.2
2015-04-07T03:29:15.368Z,12.2
2015-04-07T03:29:33.760Z,12.2
2015-04-07T03:29:52.260Z,12.2
2015-04-07T03:30:10.807Z,12.2
2015-04-07T03:30:29.182Z,12.2
2015-04-07T03:30:47.592Z,12.2
2015-04-07T03:31:05.982Z,12.2
2015-04-07T03:31:24.357Z,12.2
2015-04-07T03:31:42.953Z,12.2
2015-04-07T03:32:01.328Z,12.2
2015-04-07T03:32:19.375Z,12.2
2015-04-07T03:32:37.750Z,12.2
2015-04-07T03:32:56.393Z,12.2
2015-04-07T03:33:14.768Z,12.2
2015-04-07T03:33:33.393Z,12.2
2015-04-07T03:33:51.786Z,12.2
2015-04-07T03:34:10.192Z,12.2
2015-04-07T03:34:28.567Z,12.2
2015-04-07T03:34:47.052Z,12.2
2015-04-07T03:35:05.476Z,12.2
2015-04-07T03:35:24.069Z,12.2
2015-04-07T03:35:42.460Z,12.2
2015-04-07T03:36:00.900Z,12.2
2015-04-07T03:36:19.291Z,12.2
2015-04-07T03:36:37.682Z,12.2
2015-04-07T03:36:56.074Z,12.2
2015-04-07T03:37:14.512Z,12.2
2015-04-07T03:37:32.934Z,12.2
2015-04-07T03:37:51.562Z,12.2
2015-04-07T03:38:09.984Z,12.2
2015-04-07T03:38:28.515Z,12.2
2015-04-07T03:38:46.296Z,12.2
2015-04-07T03:39:04.892Z,12.2
2015-04-07T03:39:23.361Z,12.2
2015-04-07T03:39:41.142Z,12.2
2015-04-07T03:39:58.863Z,12.2
2015-04-07T03:40:17.331Z,12.2
2015-04-07T03:40:35.784Z,12.2
2015-04-07T03:40:54.224Z,12.2
2015-04-07T03:41:12.755Z,12.2
2015-04-07T03:41:31.286Z,12.2
2015-04-07T03:41:49.771Z,12.2
2015-04-07T03:42:08.289Z,12.2
2015-04-07T03:42:26.914Z,12.2
2015-04-07T03:42:45.289Z,12.2
2015-04-07T03:43:03.791Z,12.2
2015-04-07T03:43:22.338Z,12.2
2015-04-07T03:43:40.760Z,12.2
2015-04-07T03:43:59.231Z,12.2
2015-04-07T03:44:17.840Z,12.2
2015-04-07T03:44:36.309Z,12.2
2015-04-07T03:44:54.872Z,12.2
2015-04-07T03:45:13.281Z,12.2
2015-04-07T03:45:31.656Z,12.2
2015-04-07T03:45:50.109Z,12.2
2015-04-07T03:46:08.580Z,12.2
2015-04-07T03:46:27.158Z,12.2
2015-04-07T03:46:45.548Z,12.2
2015-04-07T03:47:03.988Z,12.2
2015-04-07T03:47:22.363Z,12.2
2015-04-07T03:47:40.894Z,12.2
2015-04-07T03:47:59.490Z,12.2
2015-04-07T03:48:17.927Z,12.2
2015-04-07T03:48:36.302Z,12.2
2015-04-07T03:48:54.865Z,12.1
2015-04-07T03:49:13.399Z,12.1
2015-04-07T03:49:31.821Z,12.1
2015-04-07T03:49:50.274Z,12.1
2015-04-07T03:50:09.137Z,12.1
2015-04-07T03:50:27.605Z,12.1
2015-04-07T03:50:46.121Z,12.1
2015-04-07T03:51:04.574Z,12.1
2015-04-07T03:51:22.951Z,12.1
2015-04-07T03:51:41.639Z,12.1
2015-04-07T03:52:00.217Z,12.1
2015-04-07T03:52:19.547Z,12.1
2015-04-07T03:52:38.297Z,12.1
2015-04-07T03:52:56.859Z,12
2015-04-07T03:53:15.394Z,12.1
2015-04-07T03:53:33.925Z,12
2015-04-07T03:53:52.425Z,12
2015-04-07T03:54:11.159Z,12
2015-04-07T03:54:29.567Z,12
2015-04-07T03:54:47.552Z,12
2015-04-07T03:55:06.067Z,12
2015-04-07T03:55:24.444Z,12
2015-04-07T03:55:42.866Z,12
2015-04-07T03:56:01.351Z,12
2015-04-07T03:56:19.166Z,12
2015-04-07T03:56:37.572Z,12
2015-04-07T03:56:56.041Z,12
2015-04-07T03:57:14.526Z,12
2015-04-07T03:57:32.574Z,12
2015-04-07T03:57:51.090Z,12
2015-04-07T03:58:09.543Z,12
2015-04-07T03:58:28.046Z,12
2015-04-07T03:58:46.437Z,12
2015-04-07T03:59:04.968Z,12
2015-04-07T03:59:23.500Z,12
2015-04-07T03:59:41.875Z,12
2015-04-07T04:00:00.266Z,12
2015-04-07T04:00:18.785Z,12
2015-04-07T04:00:37.175Z,12
2015-04-07T04:00:55.550Z,12
2015-04-07T04:01:14.285Z,12
2015-04-07T04:01:32.708Z,12
2015-04-07T04:01:51.146Z,12
2015-04-07T04:02:09.693Z,12
2015-04-07T04:02:28.227Z,12
2015-04-07T04:02:46.633Z,11.9
2015-04-07T04:03:05.258Z,11.9
2015-04-07T04:03:23.727Z,11.9
2015-04-07T04:03:42.120Z,11.9
2015-04-07T04:04:00.588Z,11.9
2015-04-07T04:04:19.182Z,11.9
2015-04-07T04:04:37.966Z,11.9
2015-04-07T04:04:56.482Z,11.9
2015-04-07T04:05:15.091Z,11.9
2015-04-07T04:05:33.529Z,11.9
2015-04-07T04:05:52.281Z,11.9
2015-04-07T04:06:11.093Z,11.9
2015-04-07T04:06:29.484Z,11.9
2015-04-07T04:06:47.908Z,11.9
2015-04-07T04:07:06.330Z,11.9